sensor_id;sensor_type;location;lat;lon;timestamp;P1;durP1;ratioP1;P2;durP2;ratioP2
3274;SDS011;1649;53.672;10.064;2023-03-01T00:01:52;16.67;;;11.23;;
3274;SDS011;1649;53.672;10.064;2023-03-01T00:04:18;19.20;;;11.40;;
3274;SDS011;1649;53.672;10.064;2023-03-01T00:06:43;14.63;;;9.53;;
3274;SDS011;1649;53.672;10.064;2023-03-01T00:09:12;21.13;;;11.20;;
3274;SDS011;1649;53.672;10.064;2023-03-01T00:11:39;18.97;;;12.87;;
3274;SDS011;1649;53.672;10.064;2023-03-01T00:14:04;19.00;;;10.53;;
3274;SDS011;1649;53.672;10.064;2023-03-01T00:16:32;19.67;;;11.30;;
3274;SDS011;1649;53.672;10.064;2023-03-01T00:19:00;19.67;;;11.00;;
3274;SDS011;1649;53.672;10.064;2023-03-01T00:21:26;19.60;;;10.97;;
3274;SDS011;1649;53.672;10.064;2023-03-01T00:23:52;19.73;;;11.73;;
3274;SDS011;1649;53.672;10.064;2023-03-01T00:26:18;21.17;;;11.80;;
3274;SDS011;1649;53.672;10.064;2023-03-01T00:28:46;20.80;;;12.10;;
3274;SDS011;1649;53.672;10.064;2023-03-01T00:31:13;18.07;;;10.90;;
3274;SDS011;1649;53.672;10.064;2023-03-01T00:33:41;17.27;;;11.40;;
3274;SDS011;1649;53.672;10.064;2023-03-01T00:36:07;20.43;;;11.60;;
3274;SDS011;1649;53.672;10.064;2023-03-01T00:38:34;16.77;;;10.47;;
3274;SDS011;1649;53.672;10.064;2023-03-01T00:41:09;16.10;;;10.50;;
3274;SDS011;1649;53.672;10.064;2023-03-01T00:43:36;20.13;;;12.33;;
3274;SDS011;1649;53.672;10.064;2023-03-01T00:46:03;18.87;;;11.43;;
3274;SDS011;1649;53.672;10.064;2023-03-01T00:48:29;17.77;;;10.40;;
3274;SDS011;1649;53.672;10.064;2023-03-01T00:50:55;18.53;;;11.00;;
3274;SDS011;1649;53.672;10.064;2023-03-01T00:53:20;16.87;;;10.37;;
3274;SDS011;1649;53.672;10.064;2023-03-01T00:55:46;14.60;;;10.20;;
3274;SDS011;1649;53.672;10.064;2023-03-01T00:58:11;14.83;;;9.97;;
3274;SDS011;1649;53.672;10.064;2023-03-01T01:00:37;16.73;;;10.03;;
3274;SDS011;1649;53.672;10.064;2023-03-01T01:03:02;19.40;;;11.30;;
3274;SDS011;1649;53.672;10.064;2023-03-01T01:05:28;15.70;;;9.50;;
3274;SDS011;1649;53.672;10.064;2023-03-01T01:07:53;19.33;;;10.60;;
3274;SDS011;1649;53.672;10.064;2023-03-01T01:10:19;16.77;;;9.10;;
3274;SDS011;1649;53.672;10.064;2023-03-01T01:12:46;16.27;;;9.63;;
3274;SDS011;1649;53.672;10.064;2023-03-01T01:15:11;16.37;;;9.83;;
3274;SDS011;1649;53.672;10.064;2023-03-01T01:17:39;13.83;;;9.80;;
3274;SDS011;1649;53.672;10.064;2023-03-01T01:20:04;17.33;;;9.37;;
3274;SDS011;1649;53.672;10.064;2023-03-01T01:22:30;16.93;;;10.40;;
3274;SDS011;1649;53.672;10.064;2023-03-01T01:24:56;16.03;;;9.70;;
3274;SDS011;1649;53.672;10.064;2023-03-01T01:27:21;21.53;;;10.13;;
3274;SDS011;1649;53.672;10.064;2023-03-01T01:29:47;15.80;;;9.73;;
3274;SDS011;1649;53.672;10.064;2023-03-01T01:32:12;15.80;;;10.57;;
3274;SDS011;1649;53.672;10.064;2023-03-01T01:34:38;17.10;;;10.63;;
3274;SDS011;1649;53.672;10.064;2023-03-01T01:37:03;13.87;;;9.60;;
3274;SDS011;1649;53.672;10.064;2023-03-01T01:39:32;17.08;;;10.93;;
3274;SDS011;1649;53.672;10.064;2023-03-01T01:41:59;18.38;;;10.82;;
3274;SDS011;1649;53.672;10.064;2023-03-01T01:44:26;16.15;;;11.35;;
3274;SDS011;1649;53.672;10.064;2023-03-01T01:46:54;22.48;;;11.20;;
3274;SDS011;1649;53.672;10.064;2023-03-01T01:49:29;18.40;;;11.30;;
3274;SDS011;1649;53.672;10.064;2023-03-01T01:52:27;15.80;;;10.15;;
3274;SDS011;1649;53.672;10.064;2023-03-01T01:55:04;17.17;;;11.02;;
3274;SDS011;1649;53.672;10.064;2023-03-01T01:57:40;22.83;;;11.68;;
3274;SDS011;1649;53.672;10.064;2023-03-01T02:00:17;18.70;;;10.25;;
3274;SDS011;1649;53.672;10.064;2023-03-01T02:02:48;15.52;;;9.73;;
3274;SDS011;1649;53.672;10.064;2023-03-01T02:05:24;15.95;;;9.82;;
3274;SDS011;1649;53.672;10.064;2023-03-01T02:08:02;24.40;;;10.00;;
3274;SDS011;1649;53.672;10.064;2023-03-01T02:10:28;15.43;;;9.30;;
3274;SDS011;1649;53.672;10.064;2023-03-01T02:12:58;16.42;;;10.50;;
3274;SDS011;1649;53.672;10.064;2023-03-01T02:15:24;16.35;;;9.73;;
3274;SDS011;1649;53.672;10.064;2023-03-01T02:17:51;18.30;;;9.90;;
3274;SDS011;1649;53.672;10.064;2023-03-01T02:20:35;17.08;;;9.07;;
3274;SDS011;1649;53.672;10.064;2023-03-01T02:23:13;17.67;;;9.80;;
3274;SDS011;1649;53.672;10.064;2023-03-01T02:30:40;17.45;;;10.13;;
3274;SDS011;1649;53.672;10.064;2023-03-01T02:33:28;18.70;;;10.05;;
3274;SDS011;1649;53.672;10.064;2023-03-01T02:35:57;15.43;;;10.10;;
3274;SDS011;1649;53.672;10.064;2023-03-01T02:38:25;20.38;;;9.70;;
3274;SDS011;1649;53.672;10.064;2023-03-01T02:40:52;19.58;;;10.80;;
3274;SDS011;1649;53.672;10.064;2023-03-01T02:43:22;15.75;;;10.02;;
3274;SDS011;1649;53.672;10.064;2023-03-01T02:45:49;17.40;;;9.90;;
3274;SDS011;1649;53.672;10.064;2023-03-01T02:48:18;15.75;;;9.88;;
3274;SDS011;1649;53.672;10.064;2023-03-01T02:53:15;21.20;;;11.90;;
3274;SDS011;1649;53.672;10.064;2023-03-01T02:55:48;19.08;;;10.82;;
3274;SDS011;1649;53.672;10.064;2023-03-01T02:58:14;16.10;;;10.25;;
3274;SDS011;1649;53.672;10.064;2023-03-01T03:00:40;18.83;;;10.27;;
3274;SDS011;1649;53.672;10.064;2023-03-01T03:03:15;20.05;;;11.13;;
3274;SDS011;1649;53.672;10.064;2023-03-01T03:05:42;21.75;;;10.88;;
3274;SDS011;1649;53.672;10.064;2023-03-01T03:08:08;17.48;;;10.63;;
3274;SDS011;1649;53.672;10.064;2023-03-01T03:10:35;16.43;;;10.47;;
3274;SDS011;1649;53.672;10.064;2023-03-01T03:13:04;19.08;;;11.15;;
3274;SDS011;1649;53.672;10.064;2023-03-01T03:15:34;18.50;;;11.05;;
3274;SDS011;1649;53.672;10.064;2023-03-01T03:18:04;22.13;;;10.70;;
3274;SDS011;1649;53.672;10.064;2023-03-01T03:20:32;18.60;;;10.77;;
3274;SDS011;1649;53.672;10.064;2023-03-01T03:22:58;20.75;;;11.48;;
3274;SDS011;1649;53.672;10.064;2023-03-01T03:25:24;20.20;;;11.60;;
3274;SDS011;1649;53.672;10.064;2023-03-01T03:27:51;17.67;;;11.20;;
3274;SDS011;1649;53.672;10.064;2023-03-01T03:30:25;17.98;;;11.40;;
3274;SDS011;1649;53.672;10.064;2023-03-01T03:32:52;16.58;;;10.90;;
3274;SDS011;1649;53.672;10.064;2023-03-01T03:35:27;19.43;;;10.93;;
3274;SDS011;1649;53.672;10.064;2023-03-01T03:37:56;19.63;;;10.27;;
3274;SDS011;1649;53.672;10.064;2023-03-01T03:40:29;19.10;;;10.20;;
3274;SDS011;1649;53.672;10.064;2023-03-01T03:42:57;18.73;;;10.55;;
3274;SDS011;1649;53.672;10.064;2023-03-01T03:45:22;16.93;;;10.30;;
3274;SDS011;1649;53.672;10.064;2023-03-01T03:47:48;14.50;;;9.23;;
3274;SDS011;1649;53.672;10.064;2023-03-01T03:50:14;18.77;;;10.60;;
3274;SDS011;1649;53.672;10.064;2023-03-01T03:52:41;20.83;;;10.93;;
3274;SDS011;1649;53.672;10.064;2023-03-01T03:55:07;14.70;;;8.97;;
3274;SDS011;1649;53.672;10.064;2023-03-01T03:57:34;17.65;;;10.85;;
3274;SDS011;1649;53.672;10.064;2023-03-01T04:00:00;18.95;;;10.98;;
3274;SDS011;1649;53.672;10.064;2023-03-01T04:02:26;13.37;;;9.00;;
3274;SDS011;1649;53.672;10.064;2023-03-01T04:04:51;15.07;;;9.77;;
3274;SDS011;1649;53.672;10.064;2023-03-01T04:07:17;16.53;;;9.20;;
3274;SDS011;1649;53.672;10.064;2023-03-01T04:09:42;14.40;;;9.87;;
3274;SDS011;1649;53.672;10.064;2023-03-01T04:12:09;15.50;;;8.85;;
3274;SDS011;1649;53.672;10.064;2023-03-01T04:14:35;14.73;;;9.90;;
3274;SDS011;1649;53.672;10.064;2023-03-01T04:17:01;16.47;;;9.37;;
3274;SDS011;1649;53.672;10.064;2023-03-01T04:19:29;14.93;;;9.18;;
3274;SDS011;1649;53.672;10.064;2023-03-01T04:22:04;13.20;;;9.03;;
3274;SDS011;1649;53.672;10.064;2023-03-01T04:24:34;13.60;;;9.43;;
3274;SDS011;1649;53.672;10.064;2023-03-01T04:27:00;15.17;;;9.50;;
3274;SDS011;1649;53.672;10.064;2023-03-01T04:29:26;17.50;;;10.60;;
3274;SDS011;1649;53.672;10.064;2023-03-01T04:31:51;14.33;;;9.30;;
3274;SDS011;1649;53.672;10.064;2023-03-01T04:34:17;12.70;;;8.60;;
3274;SDS011;1649;53.672;10.064;2023-03-01T04:36:43;14.30;;;9.00;;
3274;SDS011;1649;53.672;10.064;2023-03-01T04:39:08;15.30;;;10.33;;
3274;SDS011;1649;53.672;10.064;2023-03-01T04:41:37;15.97;;;10.33;;
3274;SDS011;1649;53.672;10.064;2023-03-01T04:44:08;18.00;;;10.27;;
3274;SDS011;1649;53.672;10.064;2023-03-01T04:46:34;15.43;;;11.50;;
3274;SDS011;1649;53.672;10.064;2023-03-01T04:49:00;15.67;;;10.20;;
3274;SDS011;1649;53.672;10.064;2023-03-01T04:51:26;15.67;;;9.80;;
3274;SDS011;1649;53.672;10.064;2023-03-01T04:53:51;14.70;;;9.97;;
3274;SDS011;1649;53.672;10.064;2023-03-01T04:56:17;18.23;;;10.93;;
3274;SDS011;1649;53.672;10.064;2023-03-01T04:58:43;18.30;;;10.33;;
3274;SDS011;1649;53.672;10.064;2023-03-01T05:01:10;14.87;;;10.63;;
3274;SDS011;1649;53.672;10.064;2023-03-01T05:03:40;21.00;;;11.47;;
3274;SDS011;1649;53.672;10.064;2023-03-01T05:06:09;16.87;;;10.17;;
3274;SDS011;1649;53.672;10.064;2023-03-01T05:08:35;16.83;;;10.20;;
3274;SDS011;1649;53.672;10.064;2023-03-01T05:11:01;16.07;;;10.07;;
3274;SDS011;1649;53.672;10.064;2023-03-01T05:13:27;16.33;;;10.40;;
3274;SDS011;1649;53.672;10.064;2023-03-01T05:15:55;15.67;;;10.20;;
3274;SDS011;1649;53.672;10.064;2023-03-01T05:18:26;17.20;;;10.70;;
3274;SDS011;1649;53.672;10.064;2023-03-01T05:20:53;15.00;;;9.60;;
3274;SDS011;1649;53.672;10.064;2023-03-01T05:23:23;13.37;;;9.30;;
3274;SDS011;1649;53.672;10.064;2023-03-01T05:25:52;15.33;;;10.17;;
3274;SDS011;1649;53.672;10.064;2023-03-01T05:28:18;18.53;;;9.80;;
3274;SDS011;1649;53.672;10.064;2023-03-01T05:30:45;14.90;;;9.57;;
3274;SDS011;1649;53.672;10.064;2023-03-01T05:33:11;14.37;;;9.93;;
3274;SDS011;1649;53.672;10.064;2023-03-01T05:35:41;16.13;;;10.20;;
3274;SDS011;1649;53.672;10.064;2023-03-01T05:38:07;13.90;;;9.27;;
3274;SDS011;1649;53.672;10.064;2023-03-01T05:40:34;12.67;;;8.93;;
3274;SDS011;1649;53.672;10.064;2023-03-01T05:43:00;18.20;;;10.13;;
3274;SDS011;1649;53.672;10.064;2023-03-01T05:45:26;14.83;;;9.47;;
3274;SDS011;1649;53.672;10.064;2023-03-01T05:47:52;13.83;;;9.07;;
3274;SDS011;1649;53.672;10.064;2023-03-01T05:50:21;15.40;;;10.30;;
3274;SDS011;1649;53.672;10.064;2023-03-01T05:52:52;15.57;;;10.27;;
3274;SDS011;1649;53.672;10.064;2023-03-01T05:55:22;24.57;;;11.50;;
3274;SDS011;1649;53.672;10.064;2023-03-01T05:57:48;21.00;;;10.60;;
3274;SDS011;1649;53.672;10.064;2023-03-01T06:00:15;17.60;;;10.50;;
3274;SDS011;1649;53.672;10.064;2023-03-01T06:02:43;18.08;;;11.23;;
3274;SDS011;1649;53.672;10.064;2023-03-01T06:05:09;19.67;;;11.67;;
3274;SDS011;1649;53.672;10.064;2023-03-01T06:07:35;20.90;;;12.63;;
3274;SDS011;1649;53.672;10.064;2023-03-01T06:10:02;20.07;;;12.57;;
3274;SDS011;1649;53.672;10.064;2023-03-01T06:12:32;21.13;;;12.23;;
3274;SDS011;1649;53.672;10.064;2023-03-01T06:14:58;19.10;;;11.90;;
3274;SDS011;1649;53.672;10.064;2023-03-01T06:17:24;18.00;;;11.50;;
3274;SDS011;1649;53.672;10.064;2023-03-01T06:19:49;18.80;;;11.03;;
3274;SDS011;1649;53.672;10.064;2023-03-01T06:22:15;20.80;;;12.13;;
3274;SDS011;1649;53.672;10.064;2023-03-01T06:24:40;20.53;;;12.43;;
3274;SDS011;1649;53.672;10.064;2023-03-01T06:27:06;21.67;;;11.80;;
3274;SDS011;1649;53.672;10.064;2023-03-01T06:29:31;19.30;;;11.90;;
3274;SDS011;1649;53.672;10.064;2023-03-01T06:31:57;18.17;;;12.23;;
3274;SDS011;1649;53.672;10.064;2023-03-01T06:34:22;30.43;;;11.60;;
3274;SDS011;1649;53.672;10.064;2023-03-01T06:36:48;21.77;;;12.50;;
3274;SDS011;1649;53.672;10.064;2023-03-01T06:39:13;23.50;;;13.50;;
3274;SDS011;1649;53.672;10.064;2023-03-01T06:41:39;20.10;;;12.37;;
3274;SDS011;1649;53.672;10.064;2023-03-01T06:44:04;20.67;;;12.30;;
3274;SDS011;1649;53.672;10.064;2023-03-01T06:46:30;18.33;;;12.60;;
3274;SDS011;1649;53.672;10.064;2023-03-01T06:48:56;20.03;;;12.23;;
3274;SDS011;1649;53.672;10.064;2023-03-01T06:51:21;20.50;;;12.77;;
3274;SDS011;1649;53.672;10.064;2023-03-01T06:53:47;19.27;;;12.33;;
3274;SDS011;1649;53.672;10.064;2023-03-01T06:56:12;21.17;;;12.97;;
3274;SDS011;1649;53.672;10.064;2023-03-01T06:58:37;24.10;;;14.57;;
3274;SDS011;1649;53.672;10.064;2023-03-01T07:01:07;19.83;;;12.90;;
3274;SDS011;1649;53.672;10.064;2023-03-01T07:03:33;17.97;;;12.53;;
3274;SDS011;1649;53.672;10.064;2023-03-01T07:05:58;18.87;;;12.80;;
3274;SDS011;1649;53.672;10.064;2023-03-01T07:08:24;23.50;;;14.00;;
3274;SDS011;1649;53.672;10.064;2023-03-01T07:10:54;23.77;;;14.60;;
3274;SDS011;1649;53.672;10.064;2023-03-01T07:13:24;20.60;;;13.20;;
3274;SDS011;1649;53.672;10.064;2023-03-01T07:15:49;20.63;;;13.77;;
3274;SDS011;1649;53.672;10.064;2023-03-01T07:18:15;22.10;;;13.47;;
3274;SDS011;1649;53.672;10.064;2023-03-01T07:20:40;21.80;;;13.60;;
3274;SDS011;1649;53.672;10.064;2023-03-01T07:23:06;26.73;;;13.83;;
3274;SDS011;1649;53.672;10.064;2023-03-01T07:25:32;20.30;;;13.63;;
3274;SDS011;1649;53.672;10.064;2023-03-01T07:27:58;26.17;;;16.47;;
3274;SDS011;1649;53.672;10.064;2023-03-01T07:30:23;31.67;;;18.83;;
3274;SDS011;1649;53.672;10.064;2023-03-01T07:32:50;29.23;;;18.50;;
3274;SDS011;1649;53.672;10.064;2023-03-01T07:35:16;30.63;;;18.60;;
3274;SDS011;1649;53.672;10.064;2023-03-01T07:37:42;27.27;;;17.40;;
3274;SDS011;1649;53.672;10.064;2023-03-01T07:40:09;29.30;;;18.67;;
3274;SDS011;1649;53.672;10.064;2023-03-01T07:42:36;27.73;;;17.60;;
3274;SDS011;1649;53.672;10.064;2023-03-01T07:45:02;29.87;;;19.67;;
3274;SDS011;1649;53.672;10.064;2023-03-01T07:47:29;28.63;;;19.00;;
3274;SDS011;1649;53.672;10.064;2023-03-01T07:49:55;24.83;;;17.90;;
3274;SDS011;1649;53.672;10.064;2023-03-01T07:52:20;29.13;;;18.83;;
3274;SDS011;1649;53.672;10.064;2023-03-01T07:54:46;29.23;;;19.17;;
3274;SDS011;1649;53.672;10.064;2023-03-01T07:57:11;32.80;;;18.50;;
3274;SDS011;1649;53.672;10.064;2023-03-01T07:59:37;28.63;;;17.77;;
3274;SDS011;1649;53.672;10.064;2023-03-01T08:02:02;26.40;;;17.97;;
3274;SDS011;1649;53.672;10.064;2023-03-01T08:04:28;26.13;;;17.47;;
3274;SDS011;1649;53.672;10.064;2023-03-01T08:06:54;26.13;;;18.60;;
3274;SDS011;1649;53.672;10.064;2023-03-01T08:09:19;27.63;;;18.67;;
3274;SDS011;1649;53.672;10.064;2023-03-01T08:11:45;25.73;;;18.27;;
3274;SDS011;1649;53.672;10.064;2023-03-01T08:14:11;26.27;;;17.70;;
3274;SDS011;1649;53.672;10.064;2023-03-01T08:16:37;27.53;;;17.77;;
3274;SDS011;1649;53.672;10.064;2023-03-01T08:19:06;25.73;;;17.70;;
3274;SDS011;1649;53.672;10.064;2023-03-01T08:21:32;24.90;;;16.73;;
3274;SDS011;1649;53.672;10.064;2023-03-01T08:24:02;27.50;;;18.47;;
3274;SDS011;1649;53.672;10.064;2023-03-01T08:26:29;24.50;;;17.40;;
3274;SDS011;1649;53.672;10.064;2023-03-01T08:28:55;25.67;;;17.87;;
3274;SDS011;1649;53.672;10.064;2023-03-01T08:31:25;24.67;;;18.40;;
3274;SDS011;1649;53.672;10.064;2023-03-01T08:33:54;25.43;;;17.37;;
3274;SDS011;1649;53.672;10.064;2023-03-01T08:36:25;24.97;;;16.50;;
3274;SDS011;1649;53.672;10.064;2023-03-01T08:38:52;28.33;;;18.10;;
3274;SDS011;1649;53.672;10.064;2023-03-01T08:41:18;24.60;;;17.37;;
3274;SDS011;1649;53.672;10.064;2023-03-01T08:43:44;22.17;;;15.10;;
3274;SDS011;1649;53.672;10.064;2023-03-01T08:46:10;24.27;;;17.23;;
3274;SDS011;1649;53.672;10.064;2023-03-01T08:48:36;22.10;;;15.20;;
3274;SDS011;1649;53.672;10.064;2023-03-01T08:51:11;23.80;;;16.67;;
3274;SDS011;1649;53.672;10.064;2023-03-01T08:53:42;22.63;;;16.27;;
3274;SDS011;1649;53.672;10.064;2023-03-01T08:56:08;23.97;;;15.20;;
3274;SDS011;1649;53.672;10.064;2023-03-01T08:58:34;23.43;;;15.87;;
3274;SDS011;1649;53.672;10.064;2023-03-01T09:01:00;22.27;;;15.23;;
3274;SDS011;1649;53.672;10.064;2023-03-01T09:03:31;20.33;;;15.27;;
3274;SDS011;1649;53.672;10.064;2023-03-01T09:05:59;22.27;;;15.37;;
3274;SDS011;1649;53.672;10.064;2023-03-01T09:08:26;21.63;;;15.93;;
3274;SDS011;1649;53.672;10.064;2023-03-01T09:10:52;25.53;;;15.93;;
3274;SDS011;1649;53.672;10.064;2023-03-01T09:13:17;21.27;;;15.33;;
3274;SDS011;1649;53.672;10.064;2023-03-01T09:15:43;23.17;;;16.43;;
3274;SDS011;1649;53.672;10.064;2023-03-01T09:18:08;21.73;;;15.90;;
3274;SDS011;1649;53.672;10.064;2023-03-01T09:20:34;19.70;;;15.20;;
3274;SDS011;1649;53.672;10.064;2023-03-01T09:22:59;25.53;;;16.20;;
3274;SDS011;1649;53.672;10.064;2023-03-01T09:25:25;23.47;;;16.53;;
3274;SDS011;1649;53.672;10.064;2023-03-01T09:27:51;22.87;;;15.40;;
3274;SDS011;1649;53.672;10.064;2023-03-01T09:30:17;25.93;;;15.97;;
3274;SDS011;1649;53.672;10.064;2023-03-01T09:32:43;22.37;;;15.77;;
3274;SDS011;1649;53.672;10.064;2023-03-01T09:35:09;22.27;;;16.47;;
3274;SDS011;1649;53.672;10.064;2023-03-01T09:37:36;22.70;;;16.40;;
3274;SDS011;1649;53.672;10.064;2023-03-01T09:40:12;21.00;;;16.00;;
3274;SDS011;1649;53.672;10.064;2023-03-01T09:42:58;22.97;;;16.00;;
3274;SDS011;1649;53.672;10.064;2023-03-01T09:45:39;22.40;;;16.43;;
3274;SDS011;1649;53.672;10.064;2023-03-01T09:48:11;22.20;;;16.67;;
3274;SDS011;1649;53.672;10.064;2023-03-01T09:50:41;22.57;;;15.43;;
3274;SDS011;1649;53.672;10.064;2023-03-01T09:53:16;22.90;;;16.33;;
3274;SDS011;1649;53.672;10.064;2023-03-01T09:55:59;25.27;;;16.60;;
3274;SDS011;1649;53.672;10.064;2023-03-01T09:58:52;26.03;;;17.13;;
3274;SDS011;1649;53.672;10.064;2023-03-01T10:01:51;24.03;;;16.50;;
3274;SDS011;1649;53.672;10.064;2023-03-01T10:09:46;21.33;;;15.07;;
3274;SDS011;1649;53.672;10.064;2023-03-01T10:12:26;23.20;;;14.40;;
3274;SDS011;1649;53.672;10.064;2023-03-01T10:14:59;18.87;;;12.27;;
3274;SDS011;1649;53.672;10.064;2023-03-01T10:17:46;17.97;;;12.03;;
3274;SDS011;1649;53.672;10.064;2023-03-01T10:20:19;18.50;;;12.43;;
3274;SDS011;1649;53.672;10.064;2023-03-01T10:22:47;16.90;;;11.90;;
3274;SDS011;1649;53.672;10.064;2023-03-01T10:25:20;18.33;;;12.63;;
3274;SDS011;1649;53.672;10.064;2023-03-01T10:28:50;17.37;;;11.70;;
3274;SDS011;1649;53.672;10.064;2023-03-01T10:31:05;20.90;;;14.00;;
3274;SDS011;1649;53.672;10.064;2023-03-01T10:33:43;22.90;;;14.07;;
3274;SDS011;1649;53.672;10.064;2023-03-01T10:36:08;18.13;;;12.07;;
3274;SDS011;1649;53.672;10.064;2023-03-01T10:39:17;18.73;;;12.30;;
3274;SDS011;1649;53.672;10.064;2023-03-01T10:41:23;21.03;;;12.40;;
3274;SDS011;1649;53.672;10.064;2023-03-01T10:43:51;18.23;;;12.50;;
3274;SDS011;1649;53.672;10.064;2023-03-01T10:46:22;20.97;;;13.30;;
3274;SDS011;1649;53.672;10.064;2023-03-01T10:49:05;20.27;;;13.10;;
3274;SDS011;1649;53.672;10.064;2023-03-01T10:51:30;19.40;;;12.27;;
3274;SDS011;1649;53.672;10.064;2023-03-01T10:53:56;18.07;;;12.70;;
3274;SDS011;1649;53.672;10.064;2023-03-01T10:56:22;19.90;;;12.70;;
3274;SDS011;1649;53.672;10.064;2023-03-01T11:01:35;24.20;;;13.03;;
3274;SDS011;1649;53.672;10.064;2023-03-01T11:06:36;17.33;;;11.30;;
3274;SDS011;1649;53.672;10.064;2023-03-01T11:09:20;17.13;;;11.00;;
3274;SDS011;1649;53.672;10.064;2023-03-01T11:11:56;19.87;;;12.87;;
3274;SDS011;1649;53.672;10.064;2023-03-01T11:14:25;19.73;;;11.27;;
3274;SDS011;1649;53.672;10.064;2023-03-01T11:17:02;15.37;;;10.90;;
3274;SDS011;1649;53.672;10.064;2023-03-01T11:19:30;16.33;;;10.40;;
3274;SDS011;1649;53.672;10.064;2023-03-01T11:24:47;20.53;;;10.80;;
3274;SDS011;1649;53.672;10.064;2023-03-01T11:27:16;17.57;;;10.73;;
3274;SDS011;1649;53.672;10.064;2023-03-01T11:33:01;17.57;;;10.67;;
3274;SDS011;1649;53.672;10.064;2023-03-01T11:35:41;17.80;;;10.63;;
3274;SDS011;1649;53.672;10.064;2023-03-01T11:40:53;16.03;;;9.30;;
3274;SDS011;1649;53.672;10.064;2023-03-01T11:43:29;14.73;;;9.37;;
3274;SDS011;1649;53.672;10.064;2023-03-01T11:49:05;17.30;;;10.03;;
3274;SDS011;1649;53.672;10.064;2023-03-01T11:57:41;16.43;;;8.40;;
3274;SDS011;1649;53.672;10.064;2023-03-01T12:00:25;16.10;;;9.77;;
3274;SDS011;1649;53.672;10.064;2023-03-01T12:03:21;14.93;;;9.00;;
3274;SDS011;1649;53.672;10.064;2023-03-01T12:08:41;14.93;;;9.80;;
3274;SDS011;1649;53.672;10.064;2023-03-01T12:11:24;15.00;;;8.43;;
3274;SDS011;1649;53.672;10.064;2023-03-01T12:14:52;16.80;;;8.20;;
3274;SDS011;1649;53.672;10.064;2023-03-01T12:17:40;13.03;;;9.10;;
3274;SDS011;1649;53.672;10.064;2023-03-01T12:20:29;13.50;;;8.63;;
3274;SDS011;1649;53.672;10.064;2023-03-01T12:28:36;13.23;;;8.43;;
3274;SDS011;1649;53.672;10.064;2023-03-01T12:39:51;13.73;;;8.00;;
3274;SDS011;1649;53.672;10.064;2023-03-01T12:45:26;10.03;;;6.80;;
3274;SDS011;1649;53.672;10.064;2023-03-01T12:48:09;9.87;;;6.70;;
3274;SDS011;1649;53.672;10.064;2023-03-01T12:50:43;12.70;;;6.50;;
3274;SDS011;1649;53.672;10.064;2023-03-01T12:53:23;10.20;;;6.03;;
3274;SDS011;1649;53.672;10.064;2023-03-01T12:56:26;9.97;;;6.27;;
3274;SDS011;1649;53.672;10.064;2023-03-01T13:01:49;9.60;;;6.57;;
3274;SDS011;1649;53.672;10.064;2023-03-01T13:04:23;12.30;;;6.43;;
3274;SDS011;1649;53.672;10.064;2023-03-01T13:07:07;10.40;;;5.07;;
3274;SDS011;1649;53.672;10.064;2023-03-01T13:17:47;7.97;;;5.17;;
3274;SDS011;1649;53.672;10.064;2023-03-01T13:20:15;8.63;;;5.33;;
3274;SDS011;1649;53.672;10.064;2023-03-01T13:22:42;10.13;;;5.90;;
3274;SDS011;1649;53.672;10.064;2023-03-01T13:25:14;8.27;;;5.37;;
3274;SDS011;1649;53.672;10.064;2023-03-01T13:27:44;8.37;;;5.57;;
3274;SDS011;1649;53.672;10.064;2023-03-01T13:33:58;9.47;;;5.73;;
3274;SDS011;1649;53.672;10.064;2023-03-01T13:35:56;8.80;;;5.67;;
3274;SDS011;1649;53.672;10.064;2023-03-01T13:38:44;11.57;;;7.40;;
3274;SDS011;1649;53.672;10.064;2023-03-01T13:44:17;9.63;;;6.53;;
3274;SDS011;1649;53.672;10.064;2023-03-01T13:46:49;9.53;;;6.47;;
3274;SDS011;1649;53.672;10.064;2023-03-01T13:49:18;10.20;;;6.90;;
3274;SDS011;1649;53.672;10.064;2023-03-01T13:51:47;10.63;;;7.20;;
3274;SDS011;1649;53.672;10.064;2023-03-01T13:54:14;12.93;;;8.60;;
3274;SDS011;1649;53.672;10.064;2023-03-01T13:56:40;12.30;;;7.30;;
3274;SDS011;1649;53.672;10.064;2023-03-01T13:59:13;10.23;;;6.80;;
3274;SDS011;1649;53.672;10.064;2023-03-01T14:01:43;14.80;;;6.93;;
3274;SDS011;1649;53.672;10.064;2023-03-01T14:04:29;10.80;;;7.20;;
3274;SDS011;1649;53.672;10.064;2023-03-01T14:07:10;13.23;;;7.87;;
3274;SDS011;1649;53.672;10.064;2023-03-01T14:09:44;11.53;;;7.83;;
3274;SDS011;1649;53.672;10.064;2023-03-01T14:14:48;9.63;;;7.30;;
3274;SDS011;1649;53.672;10.064;2023-03-01T14:17:37;10.83;;;6.43;;
3274;SDS011;1649;53.672;10.064;2023-03-01T14:22:46;10.80;;;7.20;;
3274;SDS011;1649;53.672;10.064;2023-03-01T14:25:18;11.83;;;8.00;;
3274;SDS011;1649;53.672;10.064;2023-03-01T14:27:51;11.37;;;7.70;;
3274;SDS011;1649;53.672;10.064;2023-03-01T14:30:22;11.40;;;7.90;;
3274;SDS011;1649;53.672;10.064;2023-03-01T14:32:57;13.70;;;8.13;;
3274;SDS011;1649;53.672;10.064;2023-03-01T14:35:28;12.97;;;8.93;;
3274;SDS011;1649;53.672;10.064;2023-03-01T14:37:55;12.10;;;8.50;;
3274;SDS011;1649;53.672;10.064;2023-03-01T14:40:22;9.90;;;5.63;;
3274;SDS011;1649;53.672;10.064;2023-03-01T14:42:53;9.47;;;6.03;;
3274;SDS011;1649;53.672;10.064;2023-03-01T14:45:22;11.27;;;7.00;;
3274;SDS011;1649;53.672;10.064;2023-03-01T14:47:51;10.57;;;6.80;;
3274;SDS011;1649;53.672;10.064;2023-03-01T14:50:26;11.40;;;6.73;;
3274;SDS011;1649;53.672;10.064;2023-03-01T14:52:55;11.30;;;7.00;;
3274;SDS011;1649;53.672;10.064;2023-03-01T14:55:33;10.73;;;6.73;;
3274;SDS011;1649;53.672;10.064;2023-03-01T14:58:05;12.33;;;7.67;;
3274;SDS011;1649;53.672;10.064;2023-03-01T15:00:34;12.20;;;7.93;;
3274;SDS011;1649;53.672;10.064;2023-03-01T15:03:02;14.00;;;8.13;;
3274;SDS011;1649;53.672;10.064;2023-03-01T15:05:34;10.67;;;6.90;;
3274;SDS011;1649;53.672;10.064;2023-03-01T15:08:01;12.03;;;7.93;;
3274;SDS011;1649;53.672;10.064;2023-03-01T15:10:31;10.50;;;6.30;;
3274;SDS011;1649;53.672;10.064;2023-03-01T15:18:52;11.50;;;7.03;;
3274;SDS011;1649;53.672;10.064;2023-03-01T15:21:32;11.60;;;6.60;;
3274;SDS011;1649;53.672;10.064;2023-03-01T15:24:05;10.97;;;7.17;;
3274;SDS011;1649;53.672;10.064;2023-03-01T15:26:43;10.13;;;5.77;;
3274;SDS011;1649;53.672;10.064;2023-03-01T15:29:21;8.10;;;5.00;;
3274;SDS011;1649;53.672;10.064;2023-03-01T15:31:58;9.13;;;5.70;;
3274;SDS011;1649;53.672;10.064;2023-03-01T15:34:28;10.83;;;6.17;;
3274;SDS011;1649;53.672;10.064;2023-03-01T15:36:57;11.30;;;6.43;;
3274;SDS011;1649;53.672;10.064;2023-03-01T15:42:05;10.97;;;6.13;;
3274;SDS011;1649;53.672;10.064;2023-03-01T15:45:10;12.27;;;7.27;;
3274;SDS011;1649;53.672;10.064;2023-03-01T15:47:51;12.60;;;7.33;;
3274;SDS011;1649;53.672;10.064;2023-03-01T15:50:24;11.97;;;7.37;;
3274;SDS011;1649;53.672;10.064;2023-03-01T15:52:52;13.50;;;7.20;;
3274;SDS011;1649;53.672;10.064;2023-03-01T15:55:23;10.77;;;7.30;;
3274;SDS011;1649;53.672;10.064;2023-03-01T15:58:02;13.23;;;9.20;;
3274;SDS011;1649;53.672;10.064;2023-03-01T16:00:31;15.17;;;9.27;;
3274;SDS011;1649;53.672;10.064;2023-03-01T16:02:58;16.37;;;10.23;;
3274;SDS011;1649;53.672;10.064;2023-03-01T16:05:25;17.93;;;10.53;;
3274;SDS011;1649;53.672;10.064;2023-03-01T16:07:53;17.97;;;11.93;;
3274;SDS011;1649;53.672;10.064;2023-03-01T16:10:19;19.93;;;11.80;;
3274;SDS011;1649;53.672;10.064;2023-03-01T16:12:45;23.70;;;12.10;;
3274;SDS011;1649;53.672;10.064;2023-03-01T16:15:17;16.33;;;10.70;;
3274;SDS011;1649;53.672;10.064;2023-03-01T16:17:47;18.63;;;11.03;;
3274;SDS011;1649;53.672;10.064;2023-03-01T16:20:14;19.30;;;11.47;;
3274;SDS011;1649;53.672;10.064;2023-03-01T16:22:41;17.90;;;11.13;;
3274;SDS011;1649;53.672;10.064;2023-03-01T16:25:08;17.70;;;10.90;;